Time,TemperatureF,DewpointF,PressureIn,WindDirection,WindDirectionDegrees,WindSpeedMPH,WindSpeedGustMPH,Humidity,HourlyPrecipIn,Conditions,Clouds,dailyrainin,SoftwareType,DateUTC
2013-04-13 00:03:00,48.0,48.0,30.05,WNW,301,15.0,21.0,100,0.00,,,0.09,,2013-04-13 07:03:00,
2013-04-13 00:13:00,48.0,48.0,30.05,WNW,301,15.0,21.0,100,0.00,,,0.09,,2013-04-13 07:13:00,
2013-04-13 00:22:00,48.0,48.0,30.05,WNW,289,12.0,22.0,100,0.00,,,0.09,,2013-04-13 07:22:00,
2013-04-13 00:33:00,47.0,47.0,30.06,WNW,285,12.0,25.0,100,0.00,,,0.09,,2013-04-13 07:33:00,
2013-04-13 00:43:00,47.0,47.0,30.06,WNW,285,12.0,25.0,100,0.00,,,0.09,,2013-04-13 07:43:00,
2013-04-13 00:53:00,47.0,47.0,30.06,WNW,286,11.0,23.0,100,0.00,,,0.09,,2013-04-13 07:53:00,
2013-04-13 01:03:00,47.0,47.0,30.06,WNW,282,14.0,21.0,100,0.00,,,0.09,,2013-04-13 08:03:00,
2013-04-13 01:13:00,47.0,47.0,30.06,WNW,282,14.0,21.0,100,0.00,,,0.09,,2013-04-13 08:13:00,
2013-04-13 01:23:00,47.0,47.0,30.06,NW,317,12.0,21.0,100,0.00,,,0.09,,2013-04-13 08:23:00,
2013-04-13 01:33:00,48.0,48.0,30.07,West,269,12.0,16.0,100,0.00,,,0.09,,2013-04-13 08:33:00,
2013-04-13 01:53:00,47.0,47.0,30.07,WNW,283,13.0,27.0,100,0.00,,,0.09,,2013-04-13 08:53:00,
2013-04-13 02:03:00,47.0,47.0,30.07,WNW,283,13.0,27.0,100,0.00,,,0.09,,2013-04-13 09:03:00,
2013-04-13 02:13:00,47.0,47.0,30.07,WNW,283,13.0,27.0,100,0.00,,,0.09,,2013-04-13 09:13:00,
2013-04-13 02:22:00,47.0,47.0,30.08,NW,309,13.0,18.0,100,0.00,,,0.09,,2013-04-13 09:22:00,
2013-04-13 02:34:00,47.0,47.0,30.08,West,259,16.0,26.0,100,0.00,,,0.09,,2013-04-13 09:34:00,
2013-04-13 02:46:00,47.0,47.0,30.08,West,259,16.0,26.0,100,0.00,,,0.09,,2013-04-13 09:46:00,
2013-04-13 02:53:00,46.0,46.0,30.08,West,277,13.0,20.0,100,0.00,,,0.09,,2013-04-13 09:53:00,
2013-04-13 03:04:00,46.0,46.0,30.08,WSW,257,9.0,15.0,100,0.00,,,0.09,,2013-04-13 10:04:00,
2013-04-13 03:14:00,46.0,46.0,30.08,West,271,11.0,18.0,100,0.00,,,0.09,,2013-04-13 10:14:00,
2013-04-13 03:23:00,46.0,46.0,30.08,West,271,11.0,18.0,100,0.00,,,0.09,,2013-04-13 10:23:00,
2013-04-13 03:35:00,47.0,47.0,30.08,WNW,292,10.0,17.0,100,0.00,,,0.09,,2013-04-13 10:35:00,
2013-04-13 03:44:00,47.0,47.0,30.08,WNW,292,10.0,17.0,100,0.00,,,0.09,,2013-04-13 10:44:00,
2013-04-13 03:53:00,43.0,43.0,30.09,WNW,296,12.0,28.0,100,0.01,,,0.10,,2013-04-13 10:53:00,
2013-04-13 04:12:00,44.0,44.0,30.08,West,281,11.0,19.0,100,0.02,,,0.11,,2013-04-13 11:12:00,
2013-04-13 04:23:00,45.0,45.0,30.09,WNW,298,14.0,24.0,100,0.02,,,0.11,,2013-04-13 11:23:00,
2013-04-13 04:32:00,45.0,45.0,30.09,NW,304,11.0,20.0,100,0.02,,,0.11,,2013-04-13 11:32:00,
2013-04-13 04:44:00,45.0,45.0,30.09,NW,304,11.0,20.0,100,0.02,,,0.11,,2013-04-13 11:44:00,
2013-04-13 04:52:00,44.0,44.0,30.09,West,272,12.0,25.0,100,0.01,,,0.11,,2013-04-13 11:52:00,
2013-04-13 05:04:00,44.0,44.0,30.10,NW,316,10.0,21.0,100,0.01,,,0.12,,2013-04-13 12:04:00,
2013-04-13 05:14:00,44.0,44.0,30.10,NW,316,10.0,21.0,100,0.01,,,0.12,,2013-04-13 12:14:00,
2013-04-13 05:22:00,44.0,44.0,30.10,NW,306,12.0,18.0,100,0.01,,,0.12,,2013-04-13 12:22:00,
2013-04-13 05:33:00,45.0,45.0,30.10,NW,310,6.0,15.0,100,0.01,,,0.12,,2013-04-13 12:33:00,
2013-04-13 05:45:00,45.0,45.0,30.10,NW,310,6.0,15.0,100,0.01,,,0.12,,2013-04-13 12:45:00,
2013-04-13 05:52:00,45.0,45.0,30.11,WNW,300,9.0,14.0,100,0.01,,,0.12,,2013-04-13 12:52:00,
2013-04-13 06:04:00,46.0,46.0,30.11,West,280,13.0,21.0,100,0.00,,,0.12,,2013-04-13 13:04:00,
2013-04-13 06:14:00,46.0,46.0,30.11,West,280,13.0,21.0,100,0.00,,,0.12,,2013-04-13 13:14:00,
2013-04-13 06:22:00,46.0,46.0,30.11,NW,305,14.0,21.0,100,0.00,,,0.12,,2013-04-13 13:22:00,
2013-04-13 06:33:00,44.0,44.0,30.11,WNW,302,15.0,23.0,100,0.00,,,0.12,,2013-04-13 13:33:00,
2013-04-13 06:45:00,44.0,44.0,30.11,WNW,302,15.0,23.0,100,0.00,,,0.12,,2013-04-13 13:45:00,
2013-04-13 06:52:00,44.0,44.0,30.11,WNW,285,10.0,17.0,100,0.00,,,0.12,,2013-04-13 13:52:00,
2013-04-13 07:03:00,43.0,43.0,30.12,West,277,6.0,17.0,100,0.00,,,0.12,,2013-04-13 14:03:00,
2013-04-13 07:13:00,43.0,43.0,30.12,West,277,6.0,17.0,100,0.00,,,0.12,,2013-04-13 14:13:00,
2013-04-13 07:22:00,43.0,43.0,30.12,West,260,4.0,9.0,100,0.00,,,0.12,,2013-04-13 14:22:00,
2013-04-13 07:35:00,43.0,43.0,30.13,West,260,4.0,10.0,100,0.00,,,0.12,,2013-04-13 14:35:00,
2013-04-13 07:44:00,43.0,43.0,30.13,West,260,4.0,10.0,100,0.00,,,0.12,,2013-04-13 14:44:00,
2013-04-13 07:53:00,44.0,44.0,30.13,WNW,288,4.0,10.0,100,0.00,,,0.12,,2013-04-13 14:53:00,
2013-04-13 08:03:00,45.0,45.0,30.13,WNW,287,6.0,15.0,100,0.00,,,0.12,,2013-04-13 15:03:00,
2013-04-13 08:13:00,45.0,45.0,30.13,WNW,287,6.0,15.0,100,0.00,,,0.12,,2013-04-13 15:13:00,
2013-04-13 08:24:00,45.0,45.0,30.14,WSW,246,7.0,11.0,100,0.00,,,0.12,,2013-04-13 15:24:00,
2013-04-13 08:34:00,44.0,44.0,30.15,West,273,7.0,15.0,100,0.00,,,0.12,,2013-04-13 15:34:00,
2013-04-13 08:43:00,44.0,44.0,30.15,West,273,7.0,15.0,100,0.00,,,0.12,,2013-04-13 15:43:00,
2013-04-13 08:53:00,42.0,42.0,30.15,WSW,248,5.0,15.0,100,0.05,,,0.17,,2013-04-13 15:53:00,
2013-04-13 09:04:00,42.0,42.0,30.15,SE,142,2.0,4.0,100,0.05,,,0.17,,2013-04-13 16:04:00,
2013-04-13 09:13:00,42.0,42.0,30.15,SE,142,2.0,4.0,100,0.05,,,0.17,,2013-04-13 16:13:00,
2013-04-13 09:22:00,43.0,43.0,30.15,West,260,2.0,4.0,100,0.05,,,0.17,,2013-04-13 16:22:00,
2013-04-13 09:33:00,44.0,44.0,30.16,West,263,3.0,9.0,100,0.05,,,0.17,,2013-04-13 16:33:00,
2013-04-13 09:44:00,44.0,44.0,30.16,West,263,3.0,9.0,100,0.05,,,0.17,,2013-04-13 16:44:00,
2013-04-13 09:52:00,44.0,44.0,30.15,SW,230,2.0,5.0,100,0.00,,,0.17,,2013-04-13 16:52:00,
2013-04-13 10:04:00,45.0,45.0,30.15,WSW,249,6.0,11.0,100,0.00,,,0.17,,2013-04-13 17:04:00,
2013-04-13 10:16:00,45.0,45.0,30.15,WSW,249,6.0,11.0,100,0.00,,,0.17,,2013-04-13 17:16:00,
2013-04-13 10:23:00,46.0,46.0,30.15,WSW,248,6.0,12.0,100,0.00,,,0.17,,2013-04-13 17:23:00,
2013-04-13 10:34:00,46.0,46.0,30.15,SW,233,7.0,13.0,100,0.00,,,0.17,,2013-04-13 17:34:00,
2013-04-13 10:43:00,46.0,46.0,30.15,SW,233,7.0,13.0,100,0.00,,,0.17,,2013-04-13 17:43:00,
2013-04-13 11:03:00,46.0,46.0,30.16,West,274,7.0,12.0,100,0.00,,,0.17,,2013-04-13 18:03:00,
2013-04-13 11:14:00,46.0,46.0,30.16,West,274,7.0,12.0,100,0.00,,,0.17,,2013-04-13 18:14:00,
2013-04-13 11:23:00,46.0,46.0,30.17,WSW,246,7.0,13.0,100,0.00,,,0.17,,2013-04-13 18:23:00,
2013-04-13 11:32:00,47.0,47.0,30.17,West,276,5.0,11.0,100,0.00,,,0.17,,2013-04-13 18:32:00,
2013-04-13 11:42:00,47.0,47.0,30.17,West,276,5.0,11.0,100,0.00,,,0.17,,2013-04-13 18:42:00,
2013-04-13 11:52:00,47.0,47.0,30.17,WSW,254,5.0,10.0,100,0.00,,,0.17,,2013-04-13 18:52:00,
2013-04-13 12:02:00,47.0,47.0,30.17,WSW,257,4.0,10.0,100,0.00,,,0.17,,2013-04-13 19:02:00,
2013-04-13 12:12:00,47.0,47.0,30.17,WSW,257,4.0,10.0,100,0.00,,,0.17,,2013-04-13 19:12:00,
2013-04-13 12:22:00,48.0,48.0,30.18,West,265,5.0,11.0,100,0.00,,,0.17,,2013-04-13 19:22:00,
2013-04-13 12:32:00,49.0,49.0,30.18,West,275,7.0,12.0,100,0.00,,,0.17,,2013-04-13 19:32:00,
2013-04-13 12:52:00,49.0,49.0,30.17,West,259,8.0,11.0,100,0.00,,,0.17,,2013-04-13 19:52:00,
2013-04-13 13:01:00,49.0,49.0,30.17,West,281,5.0,12.0,100,0.00,,,0.17,,2013-04-13 20:01:00,
2013-04-13 13:22:00,49.0,49.0,30.17,WSW,240,8.0,12.0,100,0.00,,,0.17,,2013-04-13 20:22:00,
2013-04-13 13:32:00,49.0,49.0,30.18,WSW,254,12.0,15.0,100,0.00,,,0.17,,2013-04-13 20:32:00,
2013-04-13 13:52:00,49.0,49.0,30.19,WSW,255,8.0,17.0,100,0.00,,,0.17,,2013-04-13 20:52:00,
2013-04-13 14:02:00,49.0,49.0,30.18,West,273,6.0,14.0,100,0.00,,,0.17,,2013-04-13 21:02:00,
2013-04-13 14:21:00,49.0,49.0,30.18,SW,227,8.0,14.0,100,0.00,,,0.17,,2013-04-13 21:21:00,
2013-04-13 14:32:00,49.0,49.0,30.18,West,259,9.0,15.0,100,0.00,,,0.17,,2013-04-13 21:32:00,
2013-04-13 14:52:00,49.0,49.0,30.19,West,264,11.0,14.0,100,0.00,,,0.17,,2013-04-13 21:52:00,
2013-04-13 15:02:00,48.0,48.0,30.19,WSW,257,12.0,17.0,100,0.00,,,0.17,,2013-04-13 22:02:00,
2013-04-13 15:22:00,49.0,49.0,30.20,WNW,283,8.0,15.0,100,0.00,,,0.17,,2013-04-13 22:22:00,
2013-04-13 15:32:00,50.0,50.0,30.20,West,267,7.0,17.0,100,0.00,,,0.17,,2013-04-13 22:32:00,
2013-04-13 15:52:00,49.0,49.0,30.20,West,272,12.0,16.0,100,0.00,,,0.17,,2013-04-13 22:52:00,
2013-04-13 16:02:00,50.0,50.0,30.19,West,277,9.0,17.0,100,0.00,,,0.17,,2013-04-13 23:02:00,
2013-04-13 16:22:00,50.0,50.0,30.19,SW,225,10.0,14.0,100,0.00,,,0.17,,2013-04-13 23:22:00,
2013-04-13 16:32:00,49.0,49.0,30.19,West,269,13.0,18.0,100,0.00,,,0.17,,2013-04-13 23:32:00,
2013-04-13 16:52:00,48.0,48.0,30.19,West,273,7.0,15.0,100,0.00,,,0.17,,2013-04-13 23:52:00,
2013-04-13 17:02:00,48.0,48.0,30.19,WSW,246,11.0,17.0,100,0.00,,,0.17,,2013-04-14 00:02:00,
2013-04-13 17:12:00,48.0,48.0,30.19,WSW,246,11.0,17.0,100,0.00,,,0.17,,2013-04-14 00:12:00,
2013-04-13 17:22:00,49.0,49.0,30.19,West,264,10.0,15.0,100,0.00,,,0.17,,2013-04-14 00:22:00,
2013-04-13 17:32:00,49.0,49.0,30.18,West,273,11.0,15.0,100,0.00,,,0.17,,2013-04-14 00:32:00,
2013-04-13 17:52:00,49.0,49.0,30.18,West,275,5.0,12.0,100,0.00,,,0.17,,2013-04-14 00:52:00,
2013-04-13 18:02:00,50.0,50.0,30.18,West,276,11.0,17.0,100,0.00,,,0.17,,2013-04-14 01:02:00,
2013-04-13 18:22:00,48.0,48.0,30.18,West,277,8.0,16.0,100,0.00,,,0.17,,2013-04-14 01:22:00,
2013-04-13 18:32:00,48.0,48.0,30.18,WNW,288,9.0,15.0,100,0.00,,,0.16,,2013-04-14 01:32:00,
2013-04-13 18:52:00,48.0,48.0,30.18,West,281,8.0,15.0,100,0.00,,,0.16,,2013-04-14 01:52:00,
2013-04-13 19:02:00,49.0,49.0,30.19,West,275,11.0,13.0,100,0.00,,,0.16,,2013-04-14 02:02:00,
2013-04-13 19:21:00,47.0,47.0,30.19,SW,219,8.0,18.0,100,0.00,,,0.16,,2013-04-14 02:21:00,
2013-04-13 19:32:00,47.0,47.0,30.19,WSW,248,6.0,10.0,100,0.00,,,0.15,,2013-04-14 02:32:00,
2013-04-13 19:42:00,47.0,47.0,30.19,WSW,248,6.0,10.0,100,0.00,,,0.15,,2013-04-14 02:42:00,
2013-04-13 19:52:00,47.0,47.0,30.18,WNW,285,7.0,15.0,100,0.00,,,0.15,,2013-04-14 02:52:00,
2013-04-13 20:02:00,47.0,47.0,30.18,West,281,10.0,15.0,100,0.00,,,0.15,,2013-04-14 03:02:00,
2013-04-13 20:12:00,47.0,47.0,30.18,West,281,10.0,15.0,100,0.00,,,0.15,,2013-04-14 03:12:00,
2013-04-13 20:21:00,46.0,46.0,30.18,WNW,302,14.0,20.0,100,0.00,,,0.15,,2013-04-14 03:21:00,
2013-04-13 20:33:00,45.0,45.0,30.18,WNW,291,6.0,14.0,100,0.01,,,0.14,,2013-04-14 03:33:00,
2013-04-13 20:42:00,45.0,45.0,30.18,WNW,291,6.0,14.0,100,0.01,,,0.14,,2013-04-14 03:42:00,
2013-04-13 20:53:00,46.0,46.0,30.19,WNW,302,5.0,10.0,100,0.01,,,0.14,,2013-04-14 03:53:00,
2013-04-13 21:02:00,46.0,46.0,30.19,WNW,284,6.0,12.0,100,0.01,,,0.14,,2013-04-14 04:02:00,
2013-04-13 21:12:00,46.0,46.0,30.19,WNW,284,6.0,12.0,100,0.01,,,0.14,,2013-04-14 04:12:00,
2013-04-13 21:22:00,46.0,46.0,30.19,West,262,4.0,12.0,100,0.01,,,0.14,,2013-04-14 04:22:00,
2013-04-13 21:32:00,46.0,46.0,30.19,WSW,252,5.0,9.0,100,0.00,,,0.09,,2013-04-14 04:32:00,
2013-04-13 21:42:00,46.0,46.0,30.19,WSW,252,5.0,9.0,100,0.00,,,0.09,,2013-04-14 04:42:00,
2013-04-13 21:52:00,46.0,46.0,30.19,WNW,287,7.0,13.0,100,0.00,,,0.09,,2013-04-14 04:52:00,
2013-04-13 22:02:00,46.0,46.0,30.19,WSW,243,9.0,16.0,100,0.00,,,0.09,,2013-04-14 05:02:00,
2013-04-13 22:12:00,46.0,46.0,30.19,WSW,243,9.0,16.0,100,0.00,,,0.09,,2013-04-14 05:12:00,
2013-04-13 22:22:00,46.0,46.0,30.18,WSW,257,4.0,11.0,100,0.00,,,0.09,,2013-04-14 05:22:00,
2013-04-13 22:32:00,47.0,47.0,30.18,West,277,8.0,11.0,100,0.00,,,0.09,,2013-04-14 05:32:00,
2013-04-13 22:42:00,47.0,47.0,30.18,West,277,8.0,11.0,100,0.00,,,0.09,,2013-04-14 05:42:00,
2013-04-13 22:52:00,46.0,46.0,30.18,WNW,298,14.0,20.0,100,0.00,,,0.09,,2013-04-14 05:52:00,
2013-04-13 23:01:00,45.0,45.0,30.19,NW,313,15.0,19.0,100,0.00,,,0.09,,2013-04-14 06:01:00,
2013-04-13 23:12:00,45.0,45.0,30.19,NW,313,15.0,19.0,100,0.00,,,0.09,,2013-04-14 06:12:00,
2013-04-13 23:21:00,44.0,44.0,30.19,NW,306,3.0,14.0,100,0.01,,,0.10,,2013-04-14 06:21:00,
2013-04-13 23:32:00,44.0,44.0,30.18,West,274,1.0,5.0,100,0.03,,,0.12,,2013-04-14 06:32:00,
2013-04-13 23:42:00,44.0,44.0,30.18,West,274,1.0,5.0,100,0.03,,,0.12,,2013-04-14 06:42:00,
2013-04-13 23:51:00,44.0,44.0,30.18,West,263,2.0,7.0,100,0.03,,,0.12,,2013-04-14 06:51:00,